sensor_id;sensor_type;location;lat;lon;timestamp;pressure;altitude;pressure_sealevel;temperature;humidity
61571;BME280;47463;49.884;10.010;2024-01-30T00:00:01;103480;;;1.3;80
61571;BME280;47463;49.884;10.010;2024-01-30T00:05:01;103480;;;1;80
61571;BME280;47463;49.884;10.010;2024-01-30T00:10:01;103480;;;1;80
61571;BME280;47463;49.884;10.010;2024-01-30T00:15:01;103470;;;0.6;82
61571;BME280;47463;49.884;10.010;2024-01-30T00:20:01;103480;;;0.6;82
61571;BME280;47463;49.884;10.010;2024-01-30T00:25:01;103490.00000000001;;;0.4;82
61571;BME280;47463;49.884;10.010;2024-01-30T00:30:01;103480;;;0.2;82
61571;BME280;47463;49.884;10.010;2024-01-30T00:35:01;103480;;;0.4;83
61571;BME280;47463;49.884;10.010;2024-01-30T00:40:01;103480;;;0.3;83
61571;BME280;47463;49.884;10.010;2024-01-30T00:45:01;103480;;;0.2;83
61571;BME280;47463;49.884;10.010;2024-01-30T00:50:01;103470;;;0.3;83
61571;BME280;47463;49.884;10.010;2024-01-30T00:55:01;103459.99999999999;;;0.3;83
61571;BME280;47463;49.884;10.010;2024-01-30T01:00:01;103470;;;0.2;83
61571;BME280;47463;49.884;10.010;2024-01-30T01:05:01;103470;;;0.1;83
61571;BME280;47463;49.884;10.010;2024-01-30T01:10:01;103470;;;0.1;83
61571;BME280;47463;49.884;10.010;2024-01-30T01:15:01;103470;;;0.1;83
61571;BME280;47463;49.884;10.010;2024-01-30T01:20:01;103470;;;0.1;83
61571;BME280;47463;49.884;10.010;2024-01-30T01:25:01;103480;;;0.1;83
61571;BME280;47463;49.884;10.010;2024-01-30T01:30:01;103480;;;-0.1;84
61571;BME280;47463;49.884;10.010;2024-01-30T01:35:01;103490.00000000001;;;-0.1;84
61571;BME280;47463;49.884;10.010;2024-01-30T01:40:01;103490.00000000001;;;-0.1;84
61571;BME280;47463;49.884;10.010;2024-01-30T01:45:01;103490.00000000001;;;-0.1;84
61571;BME280;47463;49.884;10.010;2024-01-30T01:50:01;103480;;;-0.1;84
61571;BME280;47463;49.884;10.010;2024-01-30T01:55:01;103490.00000000001;;;-0.1;84
61571;BME280;47463;49.884;10.010;2024-01-30T02:00:01;103480;;;-0.1;84
61571;BME280;47463;49.884;10.010;2024-01-30T02:05:01;103480;;;-0.1;84
61571;BME280;47463;49.884;10.010;2024-01-30T02:10:01;103470;;;-0.1;84
61571;BME280;47463;49.884;10.010;2024-01-30T02:15:01;103470;;;-0.2;84
61571;BME280;47463;49.884;10.010;2024-01-30T02:20:01;103470;;;-0.1;84
61571;BME280;47463;49.884;10.010;2024-01-30T02:25:01;103470;;;-0.2;85
61571;BME280;47463;49.884;10.010;2024-01-30T02:30:01;103470;;;-0.1;85
61571;BME280;47463;49.884;10.010;2024-01-30T02:35:01;103459.99999999999;;;-0.2;84
61571;BME280;47463;49.884;10.010;2024-01-30T02:40:01;103470;;;-0.4;85
61571;BME280;47463;49.884;10.010;2024-01-30T02:45:01;103459.99999999999;;;-0.4;85
61571;BME280;47463;49.884;10.010;2024-01-30T02:50:01;103450;;;-0.4;85
61571;BME280;47463;49.884;10.010;2024-01-30T02:55:01;103459.99999999999;;;-0.5;85
61571;BME280;47463;49.884;10.010;2024-01-30T03:00:01;103459.99999999999;;;-0.3;85
61571;BME280;47463;49.884;10.010;2024-01-30T03:05:01;103450;;;-0.3;85
61571;BME280;47463;49.884;10.010;2024-01-30T03:10:01;103450;;;-0.3;85
61571;BME280;47463;49.884;10.010;2024-01-30T03:15:01;103450;;;-0.5;85
61571;BME280;47463;49.884;10.010;2024-01-30T03:20:01;103450;;;-0.4;85
61571;BME280;47463;49.884;10.010;2024-01-30T03:25:01;103459.99999999999;;;-0.4;85
61571;BME280;47463;49.884;10.010;2024-01-30T03:30:01;103459.99999999999;;;-0.4;85
61571;BME280;47463;49.884;10.010;2024-01-30T03:35:01;103459.99999999999;;;-0.4;85
61571;BME280;47463;49.884;10.010;2024-01-30T03:40:01;103450;;;-0.5;85
61571;BME280;47463;49.884;10.010;2024-01-30T03:45:01;103450;;;-0.4;85
61571;BME280;47463;49.884;10.010;2024-01-30T03:50:01;103459.99999999999;;;-0.6;85
61571;BME280;47463;49.884;10.010;2024-01-30T03:55:01;103450;;;-0.6;85
61571;BME280;47463;49.884;10.010;2024-01-30T04:00:01;103440.00000000001;;;-0.7;85
61571;BME280;47463;49.884;10.010;2024-01-30T04:05:01;103450;;;-0.8;85
61571;BME280;47463;49.884;10.010;2024-01-30T04:10:01;103450;;;-0.8;86
61571;BME280;47463;49.884;10.010;2024-01-30T04:15:01;103450;;;-0.9;86
61571;BME280;47463;49.884;10.010;2024-01-30T04:20:01;103450;;;-1;86
61571;BME280;47463;49.884;10.010;2024-01-30T04:25:01;103450;;;-0.9;86
61571;BME280;47463;49.884;10.010;2024-01-30T04:30:01;103459.99999999999;;;-1;86
61571;BME280;47463;49.884;10.010;2024-01-30T04:35:01;103459.99999999999;;;-1;86
61571;BME280;47463;49.884;10.010;2024-01-30T04:40:01;103459.99999999999;;;-0.9;86
61571;BME280;47463;49.884;10.010;2024-01-30T04:45:01;103459.99999999999;;;-0.9;86
61571;BME280;47463;49.884;10.010;2024-01-30T04:50:01;103459.99999999999;;;-1.1;86
61571;BME280;47463;49.884;10.010;2024-01-30T04:55:01;103459.99999999999;;;-0.9;86
61571;BME280;47463;49.884;10.010;2024-01-30T05:00:01;103470;;;-0.9;86
61571;BME280;47463;49.884;10.010;2024-01-30T05:05:01;103470;;;-1;86
61571;BME280;47463;49.884;10.010;2024-01-30T05:10:01;103459.99999999999;;;-1;86
61571;BME280;47463;49.884;10.010;2024-01-30T05:15:01;103459.99999999999;;;-1;86
61571;BME280;47463;49.884;10.010;2024-01-30T05:20:01;103459.99999999999;;;-1;86
61571;BME280;47463;49.884;10.010;2024-01-30T05:25:01;103470;;;-0.9;87
61571;BME280;47463;49.884;10.010;2024-01-30T05:30:01;103470;;;-0.9;87
61571;BME280;47463;49.884;10.010;2024-01-30T05:35:01;103470;;;-0.9;86
61571;BME280;47463;49.884;10.010;2024-01-30T05:40:01;103470;;;-0.9;86
61571;BME280;47463;49.884;10.010;2024-01-30T05:45:01;103480;;;-0.8;86
61571;BME280;47463;49.884;10.010;2024-01-30T05:50:01;103470;;;-0.9;86
61571;BME280;47463;49.884;10.010;2024-01-30T05:55:01;103480;;;-1.1;86
61571;BME280;47463;49.884;10.010;2024-01-30T06:00:01;103490.00000000001;;;-1;86
61571;BME280;47463;49.884;10.010;2024-01-30T06:05:01;103480;;;-1.1;86
61571;BME280;47463;49.884;10.010;2024-01-30T06:10:01;103480;;;-1.2;86
61571;BME280;47463;49.884;10.010;2024-01-30T06:15:01;103480;;;-1.1;87
61571;BME280;47463;49.884;10.010;2024-01-30T06:20:01;103480;;;-1.1;87
61571;BME280;47463;49.884;10.010;2024-01-30T06:25:01;103480;;;-1.1;87
61571;BME280;47463;49.884;10.010;2024-01-30T06:30:01;103480;;;-0.9;87
61571;BME280;47463;49.884;10.010;2024-01-30T06:35:01;103490.00000000001;;;-1;87
61571;BME280;47463;49.884;10.010;2024-01-30T06:40:01;103490.00000000001;;;-1.1;87
61571;BME280;47463;49.884;10.010;2024-01-30T06:45:01;103490.00000000001;;;-1.2;87
61571;BME280;47463;49.884;10.010;2024-01-30T06:50:01;103490.00000000001;;;-1.2;87
61571;BME280;47463;49.884;10.010;2024-01-30T06:55:01;103490.00000000001;;;-1.2;87
61571;BME280;47463;49.884;10.010;2024-01-30T07:00:01;103500;;;-1.2;87
61571;BME280;47463;49.884;10.010;2024-01-30T07:05:01;103490.00000000001;;;-1.2;87
61571;BME280;47463;49.884;10.010;2024-01-30T07:10:01;103490.00000000001;;;-1;87
61571;BME280;47463;49.884;10.010;2024-01-30T07:15:01;103509.99999999999;;;-1;87
61571;BME280;47463;49.884;10.010;2024-01-30T07:20:01;103509.99999999999;;;-1;87
61571;BME280;47463;49.884;10.010;2024-01-30T07:25:01;103509.99999999999;;;-1;87
61571;BME280;47463;49.884;10.010;2024-01-30T07:30:01;103500;;;-0.9;87
61571;BME280;47463;49.884;10.010;2024-01-30T07:35:01;103500;;;-0.9;87
61571;BME280;47463;49.884;10.010;2024-01-30T07:40:01;103509.99999999999;;;-0.9;87
61571;BME280;47463;49.884;10.010;2024-01-30T07:45:01;103509.99999999999;;;-0.9;87
61571;BME280;47463;49.884;10.010;2024-01-30T07:50:01;103520;;;-0.8;87
61571;BME280;47463;49.884;10.010;2024-01-30T07:55:01;103530;;;-0.7;87
61571;BME280;47463;49.884;10.010;2024-01-30T08:00:01;103530;;;-0.7;87
61571;BME280;47463;49.884;10.010;2024-01-30T08:05:01;103530;;;-0.6;87
61571;BME280;47463;49.884;10.010;2024-01-30T08:10:01;103530;;;-0.4;86
61571;BME280;47463;49.884;10.010;2024-01-30T08:15:01;103530;;;-0.4;86
61571;BME280;47463;49.884;10.010;2024-01-30T08:20:01;103530;;;-0.2;86
61571;BME280;47463;49.884;10.010;2024-01-30T08:25:01;103530;;;-0.2;86
61571;BME280;47463;49.884;10.010;2024-01-30T08:30:01;103520;;;-0.1;86
61571;BME280;47463;49.884;10.010;2024-01-30T08:35:01;103530;;;-0.1;86
61571;BME280;47463;49.884;10.010;2024-01-30T08:40:01;103530;;;0.3;86
61571;BME280;47463;49.884;10.010;2024-01-30T08:45:01;103530;;;0.5;86
61571;BME280;47463;49.884;10.010;2024-01-30T08:50:01;103520;;;0.7;85
61571;BME280;47463;49.884;10.010;2024-01-30T08:55:01;103520;;;0.9;84
61571;BME280;47463;49.884;10.010;2024-01-30T09:00:01;103530;;;1.2;84
61571;BME280;47463;49.884;10.010;2024-01-30T09:05:01;103520;;;1.3;84
61571;BME280;47463;49.884;10.010;2024-01-30T09:10:01;103540.00000000001;;;1.5;83
61571;BME280;47463;49.884;10.010;2024-01-30T09:15:01;103530;;;1.7;81
61571;BME280;47463;49.884;10.010;2024-01-30T09:20:01;103530;;;1.9;81
61571;BME280;47463;49.884;10.010;2024-01-30T09:25:01;103540.00000000001;;;2.2;81
61571;BME280;47463;49.884;10.010;2024-01-30T09:30:01;103540.00000000001;;;2.4;79
61571;BME280;47463;49.884;10.010;2024-01-30T09:35:01;103550;;;2.5;78
61571;BME280;47463;49.884;10.010;2024-01-30T09:40:01;103550;;;2.8;78
61571;BME280;47463;49.884;10.010;2024-01-30T09:45:01;103540.00000000001;;;2.8;77
61571;BME280;47463;49.884;10.010;2024-01-30T09:50:01;103550;;;2.8;77
61571;BME280;47463;49.884;10.010;2024-01-30T09:55:01;103559.99999999999;;;3;76
61571;BME280;47463;49.884;10.010;2024-01-30T10:00:01;103550;;;2.4;77
61571;BME280;47463;49.884;10.010;2024-01-30T10:05:01;103570;;;2.3;77
61571;BME280;47463;49.884;10.010;2024-01-30T10:10:01;103570;;;2.3;77
61571;BME280;47463;49.884;10.010;2024-01-30T10:15:01;103570;;;2.2;78
61571;BME280;47463;49.884;10.010;2024-01-30T10:20:03;103570;;;2.4;78
61571;BME280;47463;49.884;10.010;2024-01-30T10:25:01;103580;;;2.5;78
61571;BME280;47463;49.884;10.010;2024-01-30T10:30:01;103559.99999999999;;;2.9;78
61571;BME280;47463;49.884;10.010;2024-01-30T10:35:01;103550;;;2.9;77
61571;BME280;47463;49.884;10.010;2024-01-30T10:40:02;103559.99999999999;;;2.9;78
61571;BME280;47463;49.884;10.010;2024-01-30T10:45:02;103559.99999999999;;;2.9;77
61571;BME280;47463;49.884;10.010;2024-01-30T10:50:01;103550;;;3;77
61571;BME280;47463;49.884;10.010;2024-01-30T10:55:01;103540.00000000001;;;3;77
61571;BME280;47463;49.884;10.010;2024-01-30T11:00:01;103530;;;2.7;77
61571;BME280;47463;49.884;10.010;2024-01-30T11:05:01;103520;;;2.8;78
61571;BME280;47463;49.884;10.010;2024-01-30T11:10:01;103520;;;2.8;78
61571;BME280;47463;49.884;10.010;2024-01-30T11:15:01;103520;;;2.8;77
61571;BME280;47463;49.884;10.010;2024-01-30T11:20:01;103520;;;2.9;77
61571;BME280;47463;49.884;10.010;2024-01-30T11:25:01;103509.99999999999;;;3;77
61571;BME280;47463;49.884;10.010;2024-01-30T11:30:01;103490.00000000001;;;3.2;77
61571;BME280;47463;49.884;10.010;2024-01-30T11:35:02;103490.00000000001;;;3.2;77
61571;BME280;47463;49.884;10.010;2024-01-30T11:40:01;103490.00000000001;;;3.3;77
61571;BME280;47463;49.884;10.010;2024-01-30T11:45:01;103490.00000000001;;;3.4;77
61571;BME280;47463;49.884;10.010;2024-01-30T11:50:01;103490.00000000001;;;3.5;76
61571;BME280;47463;49.884;10.010;2024-01-30T11:55:01;103480;;;3.7;76
61571;BME280;47463;49.884;10.010;2024-01-30T12:00:01;103490.00000000001;;;3.7;76
61571;BME280;47463;49.884;10.010;2024-01-30T12:05:03;103470;;;3.7;75
61571;BME280;47463;49.884;10.010;2024-01-30T12:10:01;103480;;;4.2;75
61571;BME280;47463;49.884;10.010;2024-01-30T12:15:01;103459.99999999999;;;4.9;73
61571;BME280;47463;49.884;10.010;2024-01-30T12:20:02;103459.99999999999;;;5.4;72
61571;BME280;47463;49.884;10.010;2024-01-30T12:25:01;103470;;;5.5;72
61571;BME280;47463;49.884;10.010;2024-01-30T12:30:01;103459.99999999999;;;5.2;72
61571;BME280;47463;49.884;10.010;2024-01-30T12:35:01;103450;;;5.2;72
61571;BME280;47463;49.884;10.010;2024-01-30T12:40:01;103440.00000000001;;;5.3;72
61571;BME280;47463;49.884;10.010;2024-01-30T12:45:01;103440.00000000001;;;5.4;72
61571;BME280;47463;49.884;10.010;2024-01-30T12:50:01;103440.00000000001;;;5.5;72
61571;BME280;47463;49.884;10.010;2024-01-30T12:55:01;103430;;;6;71
61571;BME280;47463;49.884;10.010;2024-01-30T13:00:01;103420;;;6.4;70
61571;BME280;47463;49.884;10.010;2024-01-30T13:05:01;103420;;;6.1;70
61571;BME280;47463;49.884;10.010;2024-01-30T13:10:01;103420;;;6.3;70
61571;BME280;47463;49.884;10.010;2024-01-30T13:15:01;103420;;;6.1;70
61571;BME280;47463;49.884;10.010;2024-01-30T13:20:01;103409.99999999999;;;5.9;71
61571;BME280;47463;49.884;10.010;2024-01-30T13:25:01;103409.99999999999;;;5.5;73
61571;BME280;47463;49.884;10.010;2024-01-30T13:30:01;103420;;;5.3;74
61571;BME280;47463;49.884;10.010;2024-01-30T13:35:01;103409.99999999999;;;5.3;74
61571;BME280;47463;49.884;10.010;2024-01-30T13:40:01;103409.99999999999;;;5.5;74
61571;BME280;47463;49.884;10.010;2024-01-30T13:45:01;103409.99999999999;;;5.4;74
61571;BME280;47463;49.884;10.010;2024-01-30T13:50:01;103400;;;5.5;74
61571;BME280;47463;49.884;10.010;2024-01-30T13:55:01;103400;;;5.5;75
61571;BME280;47463;49.884;10.010;2024-01-30T14:00:01;103409.99999999999;;;5.7;75
61571;BME280;47463;49.884;10.010;2024-01-30T14:05:01;103409.99999999999;;;6;74
61571;BME280;47463;49.884;10.010;2024-01-30T14:10:01;103409.99999999999;;;6.2;73
61571;BME280;47463;49.884;10.010;2024-01-30T14:15:01;103409.99999999999;;;6.2;73
61571;BME280;47463;49.884;10.010;2024-01-30T14:20:01;103409.99999999999;;;6.2;73
61571;BME280;47463;49.884;10.010;2024-01-30T14:25:01;103409.99999999999;;;6.1;73
61571;BME280;47463;49.884;10.010;2024-01-30T14:30:01;103420;;;6;74
61571;BME280;47463;49.884;10.010;2024-01-30T14:35:01;103409.99999999999;;;6;74
61571;BME280;47463;49.884;10.010;2024-01-30T14:40:01;103420;;;6;74
61571;BME280;47463;49.884;10.010;2024-01-30T14:45:01;103420;;;6;75
61571;BME280;47463;49.884;10.010;2024-01-30T14:50:01;103420;;;5.8;76
61571;BME280;47463;49.884;10.010;2024-01-30T14:55:01;103409.99999999999;;;5.7;76
61571;BME280;47463;49.884;10.010;2024-01-30T15:00:01;103390.00000000001;;;5.6;77
61571;BME280;47463;49.884;10.010;2024-01-30T15:05:01;103390.00000000001;;;5.6;77
61571;BME280;47463;49.884;10.010;2024-01-30T15:10:01;103409.99999999999;;;5.5;76
61571;BME280;47463;49.884;10.010;2024-01-30T15:15:01;103409.99999999999;;;5.5;77
61571;BME280;47463;49.884;10.010;2024-01-30T15:20:01;103420;;;5.5;78
61571;BME280;47463;49.884;10.010;2024-01-30T15:25:01;103420;;;5.4;78
61571;BME280;47463;49.884;10.010;2024-01-30T15:30:01;103430;;;5.4;78
61571;BME280;47463;49.884;10.010;2024-01-30T15:35:01;103420;;;5.4;78
61571;BME280;47463;49.884;10.010;2024-01-30T15:40:01;103420;;;5.3;79
61571;BME280;47463;49.884;10.010;2024-01-30T15:45:01;103420;;;5.1;79
61571;BME280;47463;49.884;10.010;2024-01-30T15:50:01;103409.99999999999;;;5.1;79
61571;BME280;47463;49.884;10.010;2024-01-30T15:55:01;103409.99999999999;;;5;80
61571;BME280;47463;49.884;10.010;2024-01-30T16:00:01;103409.99999999999;;;5;80
61571;BME280;47463;49.884;10.010;2024-01-30T16:05:01;103409.99999999999;;;5.1;79
61571;BME280;47463;49.884;10.010;2024-01-30T16:10:01;103409.99999999999;;;5.5;77
61571;BME280;47463;49.884;10.010;2024-01-30T16:15:01;103420;;;5.9;76
61571;BME280;47463;49.884;10.010;2024-01-30T16:20:01;103420;;;5.8;75
61571;BME280;47463;49.884;10.010;2024-01-30T16:25:01;103420;;;5.8;76
61571;BME280;47463;49.884;10.010;2024-01-30T16:30:01;103440.00000000001;;;6.1;74
61571;BME280;47463;49.884;10.010;2024-01-30T16:35:01;103440.00000000001;;;6.1;75
61571;BME280;47463;49.884;10.010;2024-01-30T16:40:01;103430;;;6.2;74
61571;BME280;47463;49.884;10.010;2024-01-30T16:45:01;103430;;;6.3;73
61571;BME280;47463;49.884;10.010;2024-01-30T16:50:01;103440.00000000001;;;6.4;73
61571;BME280;47463;49.884;10.010;2024-01-30T16:55:01;103440.00000000001;;;6.3;73
61571;BME280;47463;49.884;10.010;2024-01-30T17:00:01;103440.00000000001;;;6.2;73
61571;BME280;47463;49.884;10.010;2024-01-30T17:05:01;103440.00000000001;;;5.6;75
61571;BME280;47463;49.884;10.010;2024-01-30T17:10:01;103440.00000000001;;;5.5;76
61571;BME280;47463;49.884;10.010;2024-01-30T17:15:01;103430;;;5.5;76
61571;BME280;47463;49.884;10.010;2024-01-30T17:20:01;103450;;;5.5;76
61571;BME280;47463;49.884;10.010;2024-01-30T17:25:01;103459.99999999999;;;5.4;76
61571;BME280;47463;49.884;10.010;2024-01-30T17:30:01;103450;;;5.2;76
61571;BME280;47463;49.884;10.010;2024-01-30T17:35:01;103459.99999999999;;;5;77
61571;BME280;47463;49.884;10.010;2024-01-30T17:40:01;103470;;;4.8;78
61571;BME280;47463;49.884;10.010;2024-01-30T17:45:01;103459.99999999999;;;4.7;79
61571;BME280;47463;49.884;10.010;2024-01-30T17:50:01;103470;;;4.7;79
61571;BME280;47463;49.884;10.010;2024-01-30T17:55:01;103470;;;4.7;79
61571;BME280;47463;49.884;10.010;2024-01-30T18:00:01;103470;;;4.7;80
61571;BME280;47463;49.884;10.010;2024-01-30T18:05:01;103470;;;4.7;80
61571;BME280;47463;49.884;10.010;2024-01-30T18:10:01;103480;;;4.7;80
61571;BME280;47463;49.884;10.010;2024-01-30T18:15:02;103470;;;4.6;80
61571;BME280;47463;49.884;10.010;2024-01-30T18:20:01;103480;;;4.5;80
61571;BME280;47463;49.884;10.010;2024-01-30T18:25:01;103480;;;4.5;80
61571;BME280;47463;49.884;10.010;2024-01-30T18:30:01;103490.00000000001;;;4.4;80
61571;BME280;47463;49.884;10.010;2024-01-30T18:35:01;103490.00000000001;;;4.4;80
61571;BME280;47463;49.884;10.010;2024-01-30T18:40:01;103500;;;4.4;80
61571;BME280;47463;49.884;10.010;2024-01-30T18:45:01;103509.99999999999;;;4.3;80
61571;BME280;47463;49.884;10.010;2024-01-30T18:50:01;103509.99999999999;;;4.2;81
61571;BME280;47463;49.884;10.010;2024-01-30T18:55:01;103500;;;4.2;81
61571;BME280;47463;49.884;10.010;2024-01-30T19:00:01;103509.99999999999;;;4.2;81
61571;BME280;47463;49.884;10.010;2024-01-30T19:05:01;103530;;;4.2;82
61571;BME280;47463;49.884;10.010;2024-01-30T19:10:01;103500;;;4.2;82
61571;BME280;47463;49.884;10.010;2024-01-30T19:15:01;103500;;;4.4;81
61571;BME280;47463;49.884;10.010;2024-01-30T19:20:01;103509.99999999999;;;4.4;81
61571;BME280;47463;49.884;10.010;2024-01-30T19:25:01;103509.99999999999;;;4.3;81
61571;BME280;47463;49.884;10.010;2024-01-30T19:30:01;103509.99999999999;;;4.3;81
61571;BME280;47463;49.884;10.010;2024-01-30T19:35:01;103530;;;4.2;81
61571;BME280;47463;49.884;10.010;2024-01-30T19:40:01;103520;;;4.2;81
61571;BME280;47463;49.884;10.010;2024-01-30T19:45:01;103530;;;4.2;81
61571;BME280;47463;49.884;10.010;2024-01-30T19:50:01;103540.00000000001;;;4.2;81
61571;BME280;47463;49.884;10.010;2024-01-30T19:55:01;103550;;;4.1;81
61571;BME280;47463;49.884;10.010;2024-01-30T20:00:01;103550;;;4.1;82
61571;BME280;47463;49.884;10.010;2024-01-30T20:05:01;103559.99999999999;;;4.1;82
61571;BME280;47463;49.884;10.010;2024-01-30T20:10:01;103559.99999999999;;;4;82
61571;BME280;47463;49.884;10.010;2024-01-30T20:15:02;103570;;;4;82
61571;BME280;47463;49.884;10.010;2024-01-30T20:20:01;103559.99999999999;;;4;82
61571;BME280;47463;49.884;10.010;2024-01-30T20:25:01;103570;;;4.1;82
61571;BME280;47463;49.884;10.010;2024-01-30T20:30:01;103570;;;4.3;81
61571;BME280;47463;49.884;10.010;2024-01-30T20:35:01;103570;;;4.3;81
61571;BME280;47463;49.884;10.010;2024-01-30T20:40:01;103570;;;4.3;81
61571;BME280;47463;49.884;10.010;2024-01-30T20:45:01;103580;;;4.2;81
61571;BME280;47463;49.884;10.010;2024-01-30T20:50:01;103580;;;4.2;81
61571;BME280;47463;49.884;10.010;2024-01-30T20:55:01;103580;;;4.3;81
61571;BME280;47463;49.884;10.010;2024-01-30T21:00:01;103580;;;4.4;81
61571;BME280;47463;49.884;10.010;2024-01-30T21:05:01;103580;;;4.3;81
61571;BME280;47463;49.884;10.010;2024-01-30T21:10:01;103580;;;4.1;81
61571;BME280;47463;49.884;10.010;2024-01-30T21:15:01;103580;;;4;81
61571;BME280;47463;49.884;10.010;2024-01-30T21:20:01;103580;;;3.9;82
61571;BME280;47463;49.884;10.010;2024-01-30T21:25:01;103580;;;3.8;83
61571;BME280;47463;49.884;10.010;2024-01-30T21:30:01;103570;;;3.9;83
61571;BME280;47463;49.884;10.010;2024-01-30T21:35:01;103580;;;4.1;83
61571;BME280;47463;49.884;10.010;2024-01-30T21:40:01;103570;;;3.9;84
61571;BME280;47463;49.884;10.010;2024-01-30T21:45:01;103570;;;4.1;84
61571;BME280;47463;49.884;10.010;2024-01-30T21:50:01;103580;;;4.4;84
61571;BME280;47463;49.884;10.010;2024-01-30T21:55:01;103580;;;5.3;81
61571;BME280;47463;49.884;10.010;2024-01-30T22:00:01;103570;;;5.3;81
61571;BME280;47463;49.884;10.010;2024-01-30T22:05:01;103570;;;4.1;82
61571;BME280;47463;49.884;10.010;2024-01-30T22:10:01;103570;;;4.8;82
61571;BME280;47463;49.884;10.010;2024-01-30T22:15:01;103570;;;4.9;81
61571;BME280;47463;49.884;10.010;2024-01-30T22:20:01;103580;;;4.9;81
61571;BME280;47463;49.884;10.010;2024-01-30T22:25:01;103580;;;4.8;81
61571;BME280;47463;49.884;10.010;2024-01-30T22:30:01;103580;;;4.9;82
61571;BME280;47463;49.884;10.010;2024-01-30T22:35:01;103590.00000000001;;;4.9;82
61571;BME280;47463;49.884;10.010;2024-01-30T22:40:01;103580;;;4.9;82
61571;BME280;47463;49.884;10.010;2024-01-30T22:45:01;103590.00000000001;;;5;82
61571;BME280;47463;49.884;10.010;2024-01-30T22:50:01;103600;;;5.1;82
61571;BME280;47463;49.884;10.010;2024-01-30T22:55:01;103600;;;5.2;82
61571;BME280;47463;49.884;10.010;2024-01-30T23:00:01;103609.99999999999;;;5.2;82
61571;BME280;47463;49.884;10.010;2024-01-30T23:05:01;103620;;;5.3;82
61571;BME280;47463;49.884;10.010;2024-01-30T23:10:01;103620;;;5.3;82
61571;BME280;47463;49.884;10.010;2024-01-30T23:15:01;103609.99999999999;;;5.3;82
61571;BME280;47463;49.884;10.010;2024-01-30T23:20:01;103620;;;5.3;82
61571;BME280;47463;49.884;10.010;2024-01-30T23:25:01;103620;;;5.5;83
61571;BME280;47463;49.884;10.010;2024-01-30T23:30:01;103609.99999999999;;;5.6;82
61571;BME280;47463;49.884;10.010;2024-01-30T23:35:01;103620;;;5.5;82
61571;BME280;47463;49.884;10.010;2024-01-30T23:40:01;103620;;;5.5;82
61571;BME280;47463;49.884;10.010;2024-01-30T23:45:01;103620;;;5.6;83
61571;BME280;47463;49.884;10.010;2024-01-30T23:50:01;103609.99999999999;;;5.6;83
61571;BME280;47463;49.884;10.010;2024-01-30T23:55:01;103609.99999999999;;;5.6;83
